Robstown, Texas
Current Conditions -  °F | °C
As of 6:51 AM on Thursday 27 Nov 2014 (Local Time) from KCRP Reporting Station
Clear Clear  
Wind Chill: 45°   Ceiling: Unl
Heat Index: 48°   Visibility: 10mi
Dew Point: 46°   Wind: 6mph
Humidity: 93%   Direction: 30°NNE
Pressure: 30.4"   Gusts: NA
Location:  27.79°N, 97.66°W
Report Text: KCRP 271251Z 03005KT 10SM CLR 09/08 A3040 RMK AO2 SLP295 T00890078 $
Loading
Personal Weather Stations






























Interactive Weather Map New forecast layout! Learn more

10-Day Weather Forecast

Advertisements
Track Severe Weather on mobile